createdAt,value
2023-03-24T00:02:10.266Z,13.41
2023-03-24T00:04:42.677Z,13.33
2023-03-24T00:07:14.688Z,13.24
2023-03-24T00:09:45.925Z,13.15
2023-03-24T03:25:25.768Z,9.79
2023-03-24T03:28:01.100Z,9.82
2023-03-24T03:30:38.765Z,9.83
2023-03-24T03:33:18.282Z,9.83
2023-03-24T03:35:54.411Z,9.79
2023-03-24T03:38:34.330Z,9.82
2023-03-24T03:41:07.232Z,9.86
2023-03-24T03:43:39.212Z,9.91
2023-03-24T03:46:10.081Z,9.96
2023-03-24T03:48:41.642Z,9.98
2023-03-24T03:51:14.239Z,10.00
2023-03-24T03:53:54.010Z,9.96
2023-03-24T03:56:28.589Z,9.97
2023-03-24T03:59:28.522Z,10.01
2023-03-24T04:02:05.738Z,10.00
2023-03-24T04:05:15.044Z,9.98
2023-03-24T04:08:26.896Z,9.95
2023-03-24T04:11:33.145Z,9.96
2023-03-24T04:14:48.037Z,9.97
2023-03-24T04:18:16.345Z,9.99
2023-03-24T04:21:13.021Z,9.99
2023-03-24T04:23:56.511Z,10.01
2023-03-24T04:26:35.738Z,10.02
2023-03-24T04:29:17.908Z,9.98
2023-03-24T04:31:54.911Z,9.90
2023-03-24T04:34:31.090Z,9.93
2023-03-24T04:37:14.656Z,9.93
2023-03-24T04:39:59.705Z,9.87
2023-03-24T04:42:37.828Z,9.85
2023-03-24T04:45:09.847Z,9.81
2023-03-24T04:47:54.763Z,9.79
2023-03-24T04:50:37.941Z,9.74
2023-03-24T04:53:11.901Z,9.74
2023-03-24T04:56:08.664Z,9.79
2023-03-24T04:59:08.431Z,9.81
2023-03-24T05:01:39.899Z,9.85
2023-03-24T05:04:45.116Z,9.90
2023-03-24T05:07:25.717Z,9.91
2023-03-24T05:09:59.288Z,9.95
2023-03-24T05:12:28.739Z,10.01
2023-03-24T05:15:19.578Z,10.04
2023-03-24T05:17:53.080Z,10.09
2023-03-24T05:20:26.408Z,10.01
2023-03-24T05:22:57.733Z,10.08
2023-03-24T05:25:27.791Z,10.21
2023-03-24T05:27:56.773Z,10.27
2023-03-24T05:30:29.539Z,10.29
2023-03-24T05:33:07.115Z,10.31
2023-03-24T05:35:36.616Z,10.39
2023-03-24T05:38:05.611Z,10.50
2023-03-24T05:40:35.309Z,10.58
2023-03-24T05:43:14.154Z,10.66
2023-03-24T05:45:50.725Z,10.73
2023-03-24T05:48:31.905Z,10.81
2023-03-24T05:51:15.903Z,11.01
2023-03-24T05:53:45.069Z,11.13
2023-03-24T05:56:20.020Z,11.23
2023-03-24T05:59:07.259Z,11.34
2023-03-24T06:02:00.917Z,11.46
2023-03-24T06:04:51.723Z,11.59
2023-03-24T06:07:27.087Z,11.65
2023-03-24T06:10:02.943Z,11.73
2023-03-24T06:12:39.832Z,11.85
2023-03-24T06:15:10.917Z,11.97
2023-03-24T06:17:43.268Z,11.97
2023-03-24T06:20:23.054Z,12.13
2023-03-24T06:23:05.627Z,12.25
2023-03-24T06:26:01.309Z,12.34
2023-03-24T06:33:08.231Z,12.57
2023-03-24T06:35:37.705Z,12.66
2023-03-24T06:38:14.437Z,12.83
2023-03-24T06:40:44.265Z,12.86
2023-03-24T06:43:13.423Z,12.95
2023-03-24T06:45:46.131Z,13.02
2023-03-24T06:48:27.555Z,13.07
2023-03-24T06:55:38.531Z,13.28
2023-03-24T06:58:08.253Z,13.26
2023-03-24T07:01:02.070Z,13.34
2023-03-24T07:03:41.961Z,13.34
2023-03-24T07:06:32.257Z,13.42
2023-03-24T07:09:12.159Z,13.42
2023-03-24T07:11:41.475Z,13.46
2023-03-24T07:14:10.915Z,13.57
2023-03-24T07:16:40.400Z,13.56
2023-03-24T07:19:39.983Z,13.64
2023-03-24T07:22:28.256Z,13.62
2023-03-24T07:25:20.403Z,13.57
2023-03-24T07:28:06.885Z,13.60
2023-03-24T07:30:40.479Z,13.63
2023-03-24T07:33:12.082Z,13.63
2023-03-24T07:35:44.594Z,13.65
2023-03-24T07:38:14.206Z,13.61
2023-03-24T07:40:43.695Z,13.67
2023-03-24T07:43:12.970Z,13.64
2023-03-24T07:45:54.681Z,13.68
2023-03-24T07:48:23.854Z,13.70
2023-03-24T07:50:56.018Z,13.73
2023-03-24T07:53:45.771Z,13.68
2023-03-24T08:01:04.397Z,13.55
2023-03-24T08:03:42.168Z,13.51
2023-03-24T08:06:18.826Z,13.52
2023-03-24T08:08:58.719Z,13.44
2023-03-24T08:15:59.030Z,13.50
2023-03-24T08:18:28.251Z,13.55
2023-03-24T08:21:01.674Z,13.60
2023-03-24T08:23:32.089Z,13.65
2023-03-24T08:26:02.623Z,13.71
2023-03-24T08:28:31.526Z,13.75
2023-03-24T08:31:00.687Z,13.84
2023-03-24T08:33:29.576Z,13.77
2023-03-24T08:36:00.994Z,13.79
2023-03-24T08:38:31.932Z,13.81
2023-03-24T08:41:06.965Z,13.83
2023-03-24T08:43:37.806Z,13.70
2023-03-24T08:46:12.477Z,13.76
2023-03-24T08:48:43.950Z,13.76
2023-03-24T08:51:15.464Z,13.87
2023-03-24T08:53:45.989Z,13.97
2023-03-24T08:56:15.078Z,14.10
2023-03-24T08:58:43.839Z,14.25
2023-03-24T09:01:13.184Z,14.28
2023-03-24T09:03:42.428Z,14.51
2023-03-24T09:06:11.949Z,14.69
2023-03-24T09:08:41.064Z,14.92
2023-03-24T09:11:17.639Z,15.25
2023-03-24T09:13:50.329Z,15.68
2023-03-24T09:16:19.526Z,16.24
2023-03-24T09:18:48.469Z,16.68
2023-03-24T09:21:18.151Z,16.72
2023-03-24T09:23:47.012Z,16.79
2023-03-24T09:30:49.984Z,16.82
2023-03-24T09:37:51.208Z,17.60
2023-03-24T09:40:25.657Z,18.75
2023-03-24T09:43:02.187Z,19.34
2023-03-24T09:45:37.703Z,18.98
2023-03-24T09:48:16.040Z,18.37
2023-03-24T09:50:54.336Z,18.28
2023-03-24T09:53:37.055Z,18.18
2023-03-24T10:00:38.594Z,17.78
2023-03-24T10:03:21.174Z,17.80
2023-03-24T10:05:57.245Z,17.86
2023-03-24T10:08:36.440Z,17.93
2023-03-24T10:11:11.957Z,17.77
2023-03-24T10:14:01.566Z,17.69
2023-03-24T10:16:45.859Z,17.76
2023-03-24T10:19:31.017Z,17.71
2023-03-24T10:22:12.245Z,17.66
2023-03-24T10:24:50.660Z,17.66
2023-03-24T10:27:30.780Z,17.50
2023-03-24T10:30:08.278Z,17.56
2023-03-24T10:37:12.687Z,17.34
2023-03-24T10:39:44.547Z,17.20
2023-03-24T10:42:21.951Z,17.36
2023-03-24T10:44:53.459Z,17.44
2023-03-24T10:47:28.988Z,17.47
2023-03-24T10:50:14.376Z,17.55
2023-03-24T10:52:51.000Z,17.40
2023-03-24T10:55:23.739Z,17.64
2023-03-24T10:57:57.710Z,17.71
2023-03-24T11:00:31.669Z,17.78
2023-03-24T11:03:06.109Z,17.82
2023-03-24T11:05:38.676Z,17.79
2023-03-24T11:08:28.612Z,17.80
2023-03-24T11:10:57.940Z,17.81
2023-03-24T11:13:34.034Z,17.73
2023-03-24T11:16:15.823Z,17.76
2023-03-24T11:18:58.887Z,17.78
2023-03-24T11:21:29.825Z,17.75
2023-03-24T11:24:03.802Z,17.81
2023-03-24T11:26:35.916Z,17.81
2023-03-24T11:29:09.792Z,17.88
2023-03-24T11:31:40.494Z,17.88
2023-03-24T11:34:20.040Z,17.90
2023-03-24T11:36:53.871Z,17.90
2023-03-24T11:39:26.861Z,17.92
2023-03-24T11:42:20.267Z,17.93
2023-03-24T11:44:52.080Z,17.90
2023-03-24T11:47:30.649Z,17.90
2023-03-24T11:50:18.684Z,17.93
2023-03-24T11:52:55.430Z,17.94
2023-03-24T11:55:44.239Z,17.98
2023-03-24T11:58:28.110Z,18.03
2023-03-24T12:01:05.690Z,18.08
2023-03-24T12:03:57.036Z,18.12
2023-03-24T12:06:43.589Z,18.24
2023-03-24T12:09:23.996Z,18.37
2023-03-24T12:12:24.165Z,18.49
2023-03-24T12:15:27.879Z,18.69
2023-03-24T12:18:16.378Z,18.98
2023-03-24T12:20:58.688Z,19.27
2023-03-24T12:23:38.940Z,19.53
2023-03-24T12:26:22.096Z,19.88
2023-03-24T12:29:21.491Z,20.11
2023-03-24T12:32:11.179Z,20.32
2023-03-24T12:35:13.528Z,20.43
2023-03-24T12:37:59.122Z,20.48
2023-03-24T12:41:00.263Z,20.60
2023-03-24T12:43:44.361Z,20.44
2023-03-24T12:46:47.929Z,20.58
2023-03-24T12:49:37.781Z,20.55
2023-03-24T12:52:33.479Z,20.56
2023-03-24T12:55:10.110Z,20.49
2023-03-24T12:57:47.144Z,20.54
2023-03-24T13:00:24.277Z,20.58
2023-03-24T13:02:59.704Z,20.59
2023-03-24T13:05:33.480Z,20.57
2023-03-24T13:08:08.280Z,20.64
2023-03-24T13:10:40.682Z,20.64
2023-03-24T13:13:17.409Z,20.62
2023-03-24T13:15:52.209Z,20.57
2023-03-24T13:18:32.761Z,20.62
2023-03-24T13:21:08.968Z,20.53
2023-03-24T13:23:47.486Z,20.50
2023-03-24T13:26:29.320Z,20.48
2023-03-24T13:29:18.528Z,20.52
2023-03-24T13:31:57.744Z,20.47
2023-03-24T13:48:41.659Z,20.27
2023-03-24T13:51:20.341Z,20.43
2023-03-24T14:03:18.030Z,20.43
2023-03-24T14:06:02.183Z,20.42
2023-03-24T14:09:01.673Z,20.57
2023-03-24T14:12:09.722Z,20.65
2023-03-24T14:15:22.134Z,20.70
2023-03-24T14:17:55.777Z,20.77
2023-03-24T14:20:37.386Z,20.96
2023-03-24T14:23:06.749Z,21.00
2023-03-24T14:25:36.943Z,20.92
2023-03-24T14:28:26.663Z,20.93
2023-03-24T14:31:13.231Z,20.92
2023-03-24T14:34:05.906Z,20.97
2023-03-24T14:36:39.856Z,20.95
2023-03-24T14:39:25.034Z,20.90
2023-03-24T14:46:42.423Z,20.68
2023-03-24T14:49:25.028Z,20.55
2023-03-24T14:52:04.569Z,20.44
2023-03-24T14:54:42.260Z,20.36
2023-03-24T14:57:21.470Z,20.30
2023-03-24T15:00:01.080Z,20.28
2023-03-24T15:02:38.309Z,20.22
2023-03-24T15:05:30.923Z,20.26
2023-03-24T15:08:05.632Z,20.17
2023-03-24T15:10:42.001Z,20.26
2023-03-24T15:13:36.494Z,20.18
2023-03-24T15:16:17.463Z,20.21
2023-03-24T15:19:00.657Z,20.09
2023-03-24T15:21:34.790Z,20.04
2023-03-24T15:24:26.701Z,19.95
2023-03-24T15:27:08.334Z,19.87
2023-03-24T15:29:40.774Z,19.87
2023-03-24T15:32:19.744Z,19.85
2023-03-24T15:34:54.123Z,19.77
2023-03-24T15:37:25.443Z,19.70
2023-03-24T15:40:05.165Z,19.70
2023-03-24T15:42:46.083Z,19.59
2023-03-24T15:45:26.771Z,19.65
2023-03-24T15:47:57.603Z,19.54
2023-03-24T15:50:38.376Z,19.48
2023-03-24T15:53:24.746Z,19.39
2023-03-24T15:56:08.349Z,19.30
2023-03-24T15:58:51.387Z,19.24
2023-03-24T16:01:31.631Z,19.09
2023-03-24T16:04:02.391Z,19.08
2023-03-24T16:06:36.876Z,19.01
2023-03-24T16:09:13.675Z,18.97
2023-03-24T16:11:43.686Z,18.93
2023-03-24T16:14:24.412Z,18.93
2023-03-24T16:16:56.256Z,18.91
2023-03-24T16:19:25.216Z,18.90
2023-03-24T16:21:56.082Z,18.90
2023-03-24T16:29:00.766Z,18.66
2023-03-24T16:31:33.612Z,18.68
2023-03-24T16:34:03.018Z,18.61
2023-03-24T16:36:32.367Z,18.52
2023-03-24T16:39:03.316Z,18.35
2023-03-24T16:41:32.125Z,18.14
2023-03-24T16:44:01.132Z,17.99
2023-03-24T16:46:34.321Z,17.93
2023-03-24T16:49:07.034Z,17.85
2023-03-24T16:51:36.150Z,17.65
2023-03-24T16:54:07.888Z,17.61
2023-03-24T16:56:38.437Z,17.51
2023-03-24T16:59:09.149Z,17.39
2023-03-24T17:01:40.259Z,17.38
2023-03-24T17:04:15.279Z,17.27
2023-03-24T17:06:49.223Z,17.14
2023-03-24T17:09:20.822Z,16.87
2023-03-24T17:11:53.293Z,16.58
2023-03-24T17:14:23.175Z,16.39
2023-03-24T17:16:53.398Z,16.19
2023-03-24T17:19:25.684Z,16.03
2023-03-24T17:22:02.347Z,15.90
2023-03-24T17:24:36.747Z,15.81
2023-03-24T17:27:12.188Z,15.70
2023-03-24T17:38:48.737Z,15.17
2023-03-24T17:41:19.423Z,15.13
2023-03-24T17:43:48.489Z,15.12
2023-03-24T17:46:17.804Z,15.10
2023-03-24T17:48:47.926Z,15.07
2023-03-24T17:51:18.703Z,15.06
2023-03-24T17:53:47.536Z,15.02
2023-03-24T17:56:17.946Z,14.99
2023-03-24T17:58:48.121Z,14.93
2023-03-24T18:01:18.404Z,14.89
2023-03-24T18:03:49.823Z,14.87
2023-03-24T18:06:19.017Z,14.81
2023-03-24T18:08:48.055Z,14.72
2023-03-24T18:11:18.683Z,14.66
2023-03-24T18:13:48.227Z,14.61
2023-03-24T18:16:22.011Z,14.51
2023-03-24T18:18:51.996Z,14.52
2023-03-24T18:21:21.177Z,14.47
2023-03-24T18:23:51.234Z,14.47
2023-03-24T18:26:22.336Z,14.31
2023-03-24T18:28:51.558Z,14.28
2023-03-24T18:31:23.544Z,14.28
2023-03-24T18:33:53.824Z,14.31
2023-03-24T18:36:26.582Z,14.29
2023-03-24T18:39:00.516Z,14.31
2023-03-24T18:41:31.662Z,14.29
2023-03-24T18:44:01.242Z,14.31
2023-03-24T18:46:30.881Z,14.27
2023-03-24T18:48:59.749Z,14.22
2023-03-24T18:51:29.500Z,14.22
2023-03-24T18:58:32.557Z,14.13
2023-03-24T19:01:09.126Z,14.18
2023-03-24T19:03:41.008Z,14.21
2023-03-24T19:06:13.219Z,14.25
2023-03-24T19:08:45.921Z,14.21
2023-03-24T19:11:16.960Z,14.19
2023-03-24T19:13:49.970Z,14.22
2023-03-24T19:20:50.057Z,14.21
2023-03-24T19:27:51.209Z,14.25
2023-03-24T19:30:21.426Z,14.24
2023-03-24T19:32:50.492Z,14.24
2023-03-24T19:35:19.623Z,14.19
2023-03-24T19:37:48.758Z,14.18
2023-03-24T19:40:18.367Z,14.21
2023-03-24T19:42:47.502Z,14.19
2023-03-24T19:45:19.046Z,14.12
2023-03-24T19:47:49.726Z,14.10
2023-03-24T19:50:19.188Z,14.08
2023-03-24T19:57:20.876Z,13.96
2023-03-24T19:59:49.724Z,13.88
2023-03-24T20:02:21.029Z,13.84
2023-03-24T20:04:52.070Z,13.82
2023-03-24T20:07:23.034Z,13.78
2023-03-24T20:09:52.028Z,13.77
2023-03-24T20:12:21.156Z,13.68
2023-03-24T20:14:50.010Z,13.63
2023-03-24T20:17:21.988Z,13.58
2023-03-24T20:19:52.226Z,13.56
2023-03-24T20:22:21.585Z,13.56
2023-03-24T20:24:50.782Z,13.52
2023-03-24T20:27:19.818Z,13.47
2023-03-24T20:29:48.776Z,13.52
2023-03-24T20:32:17.872Z,13.60
2023-03-24T20:34:46.788Z,13.65
2023-03-24T20:37:17.691Z,13.68
2023-03-24T20:39:46.542Z,13.70
2023-03-24T20:42:17.550Z,13.73
2023-03-24T20:44:46.344Z,13.77
2023-03-24T20:47:15.408Z,13.77
2023-03-24T20:49:44.207Z,13.87
2023-03-24T20:52:14.363Z,13.91
2023-03-24T20:54:44.472Z,13.93
2023-03-24T20:57:13.549Z,13.91
2023-03-24T20:59:42.399Z,13.90
2023-03-24T21:02:12.438Z,13.76
2023-03-24T21:04:41.264Z,13.91
2023-03-24T21:07:10.333Z,13.88
2023-03-24T21:09:39.138Z,13.94
2023-03-24T21:12:09.868Z,13.94
2023-03-24T21:14:38.610Z,13.99
2023-03-24T21:17:07.625Z,13.98
2023-03-24T21:19:37.287Z,14.01
2023-03-24T21:22:06.368Z,13.98
2023-03-24T21:24:35.302Z,13.99
2023-03-24T21:27:04.375Z,13.96
2023-03-24T21:29:34.661Z,13.96
2023-03-24T21:32:03.674Z,13.87
2023-03-24T21:34:32.511Z,13.87
2023-03-24T21:37:01.597Z,13.80
2023-03-24T21:39:30.780Z,13.71
2023-03-24T21:42:02.906Z,13.67
2023-03-24T21:44:34.294Z,13.61
2023-03-24T21:47:03.457Z,13.58
2023-03-24T21:49:33.558Z,13.51
2023-03-24T21:52:04.409Z,13.50
2023-03-24T21:54:33.464Z,13.38
2023-03-24T21:57:04.071Z,13.32
2023-03-24T21:59:34.336Z,13.34
2023-03-24T22:02:03.486Z,13.36
2023-03-24T22:04:38.161Z,13.36
2023-03-24T22:07:07.517Z,13.32
2023-03-24T22:09:36.385Z,13.28
2023-03-24T22:12:06.305Z,13.28
2023-03-24T22:14:36.558Z,13.27
2023-03-24T22:17:08.010Z,13.28
2023-03-24T22:19:38.112Z,13.28
2023-03-24T22:22:07.109Z,13.22
2023-03-24T22:24:36.193Z,13.19
2023-03-24T22:27:05.406Z,13.16
2023-03-24T22:29:35.992Z,13.06
2023-03-24T22:32:05.126Z,13.01
2023-03-24T22:34:34.120Z,12.95
2023-03-24T22:37:03.225Z,12.95
2023-03-24T22:39:34.015Z,12.95
2023-03-24T22:42:03.307Z,12.93
2023-03-24T22:44:33.634Z,12.87
2023-03-24T22:47:04.484Z,12.83
2023-03-24T22:49:34.184Z,12.72
2023-03-24T22:52:03.533Z,12.74
2023-03-24T22:54:32.961Z,12.72
2023-03-24T22:57:02.164Z,12.63
2023-03-24T22:59:32.479Z,12.59
2023-03-24T23:02:10.107Z,12.53
2023-03-24T23:04:40.570Z,12.49
2023-03-24T23:07:10.251Z,12.46
2023-03-24T23:09:42.990Z,12.45
2023-03-24T23:12:13.626Z,12.47
2023-03-24T23:14:42.552Z,12.43
2023-03-24T23:17:13.247Z,12.41
2023-03-24T23:19:41.980Z,12.37
2023-03-24T23:22:11.293Z,12.27
2023-03-24T23:24:40.333Z,12.31
2023-03-24T23:27:09.395Z,12.24
2023-03-24T23:29:40.765Z,12.22
2023-03-24T23:32:10.058Z,12.18
2023-03-24T23:34:42.780Z,12.16
2023-03-24T23:37:11.967Z,12.16
2023-03-24T23:39:40.756Z,12.10
2023-03-24T23:42:09.736Z,12.08
2023-03-24T23:44:38.494Z,12.07
2023-03-24T23:47:07.563Z,12.05
2023-03-24T23:49:36.459Z,12.02
2023-03-24T23:52:07.087Z,12.04
2023-03-24T23:54:36.065Z,12.04
2023-03-24T23:57:05.415Z,12.00
2023-03-24T23:59:34.278Z,12.01
